sensor_id;sensor_type;location;lat;lon;timestamp;temperature;humidity
17728;DHT22;8984;49.268;12.302;2023-06-10T00:02:22;20.00;99.90
17728;DHT22;8984;49.268;12.302;2023-06-10T00:04:49;19.80;99.90
17728;DHT22;8984;49.268;12.302;2023-06-10T00:07:16;19.90;99.90
17728;DHT22;8984;49.268;12.302;2023-06-10T00:09:43;19.90;99.90
17728;DHT22;8984;49.268;12.302;2023-06-10T00:12:11;19.90;99.90
17728;DHT22;8984;49.268;12.302;2023-06-10T00:14:40;19.90;99.90
17728;DHT22;8984;49.268;12.302;2023-06-10T00:17:07;19.90;99.90
17728;DHT22;8984;49.268;12.302;2023-06-10T00:19:35;19.90;99.90
17728;DHT22;8984;49.268;12.302;2023-06-10T00:22:02;19.90;99.90
17728;DHT22;8984;49.268;12.302;2023-06-10T00:24:30;19.90;99.90
17728;DHT22;8984;49.268;12.302;2023-06-10T00:26:57;19.90;99.90
17728;DHT22;8984;49.268;12.302;2023-06-10T00:29:25;19.90;99.90
17728;DHT22;8984;49.268;12.302;2023-06-10T00:31:52;19.90;99.90
17728;DHT22;8984;49.268;12.302;2023-06-10T00:34:22;19.90;99.90
17728;DHT22;8984;49.268;12.302;2023-06-10T00:36:50;19.90;99.90
17728;DHT22;8984;49.268;12.302;2023-06-10T00:39:17;19.80;99.90
17728;DHT22;8984;49.268;12.302;2023-06-10T00:41:43;19.90;99.90
17728;DHT22;8984;49.268;12.302;2023-06-10T00:44:10;19.80;99.90
17728;DHT22;8984;49.268;12.302;2023-06-10T00:46:38;19.90;99.90
17728;DHT22;8984;49.268;12.302;2023-06-10T00:49:05;19.90;99.90
17728;DHT22;8984;49.268;12.302;2023-06-10T00:51:33;19.70;99.90
17728;DHT22;8984;49.268;12.302;2023-06-10T00:54:02;19.80;99.90
17728;DHT22;8984;49.268;12.302;2023-06-10T00:56:29;19.80;99.90
17728;DHT22;8984;49.268;12.302;2023-06-10T00:58:57;19.90;99.90
17728;DHT22;8984;49.268;12.302;2023-06-10T01:01:24;19.80;99.90
17728;DHT22;8984;49.268;12.302;2023-06-10T01:03:52;19.70;99.90
17728;DHT22;8984;49.268;12.302;2023-06-10T01:06:25;19.70;99.90
17728;DHT22;8984;49.268;12.302;2023-06-10T01:09:05;19.80;99.90
17728;DHT22;8984;49.268;12.302;2023-06-10T01:11:36;19.70;99.90
17728;DHT22;8984;49.268;12.302;2023-06-10T01:14:04;19.60;99.90
17728;DHT22;8984;49.268;12.302;2023-06-10T01:16:33;19.70;99.90
17728;DHT22;8984;49.268;12.302;2023-06-10T01:19:03;19.50;99.90
17728;DHT22;8984;49.268;12.302;2023-06-10T01:21:31;19.60;99.90
17728;DHT22;8984;49.268;12.302;2023-06-10T01:23:57;19.70;99.90
17728;DHT22;8984;49.268;12.302;2023-06-10T01:26:29;19.50;99.90
17728;DHT22;8984;49.268;12.302;2023-06-10T01:28:59;19.50;99.90
17728;DHT22;8984;49.268;12.302;2023-06-10T01:31:33;19.60;99.90
17728;DHT22;8984;49.268;12.302;2023-06-10T01:34:06;19.40;99.90
17728;DHT22;8984;49.268;12.302;2023-06-10T01:36:37;19.60;99.90
17728;DHT22;8984;49.268;12.302;2023-06-10T01:39:05;19.50;99.90
17728;DHT22;8984;49.268;12.302;2023-06-10T01:41:32;19.40;99.90
17728;DHT22;8984;49.268;12.302;2023-06-10T01:44:00;19.30;99.90
17728;DHT22;8984;49.268;12.302;2023-06-10T01:46:28;19.40;99.90
17728;DHT22;8984;49.268;12.302;2023-06-10T01:48:56;19.40;99.90
17728;DHT22;8984;49.268;12.302;2023-06-10T01:51:23;19.30;99.90
17728;DHT22;8984;49.268;12.302;2023-06-10T01:53:51;19.30;99.90
17728;DHT22;8984;49.268;12.302;2023-06-10T01:56:18;19.30;99.90
17728;DHT22;8984;49.268;12.302;2023-06-10T01:58:45;19.30;99.90
17728;DHT22;8984;49.268;12.302;2023-06-10T02:01:12;19.20;99.90
17728;DHT22;8984;49.268;12.302;2023-06-10T02:03:39;19.20;99.90
17728;DHT22;8984;49.268;12.302;2023-06-10T02:06:06;19.10;99.90
17728;DHT22;8984;49.268;12.302;2023-06-10T02:08:33;19.10;99.90
17728;DHT22;8984;49.268;12.302;2023-06-10T02:11:01;19.10;99.90
17728;DHT22;8984;49.268;12.302;2023-06-10T02:13:28;19.10;99.90
17728;DHT22;8984;49.268;12.302;2023-06-10T02:15:55;18.90;99.90
17728;DHT22;8984;49.268;12.302;2023-06-10T02:18:21;18.90;99.90
17728;DHT22;8984;49.268;12.302;2023-06-10T02:20:48;18.90;99.90
17728;DHT22;8984;49.268;12.302;2023-06-10T02:23:15;18.90;99.90
17728;DHT22;8984;49.268;12.302;2023-06-10T02:25:42;18.80;99.90
17728;DHT22;8984;49.268;12.302;2023-06-10T02:28:10;18.80;99.90
17728;DHT22;8984;49.268;12.302;2023-06-10T02:30:39;18.80;99.90
17728;DHT22;8984;49.268;12.302;2023-06-10T02:33:06;18.80;99.90
17728;DHT22;8984;49.268;12.302;2023-06-10T02:35:36;18.70;99.90
17728;DHT22;8984;49.268;12.302;2023-06-10T02:38:03;18.70;99.90
17728;DHT22;8984;49.268;12.302;2023-06-10T02:40:30;18.60;99.90
17728;DHT22;8984;49.268;12.302;2023-06-10T02:42:57;18.60;99.90
17728;DHT22;8984;49.268;12.302;2023-06-10T02:45:26;18.50;99.90
17728;DHT22;8984;49.268;12.302;2023-06-10T02:47:52;18.50;99.90
17728;DHT22;8984;49.268;12.302;2023-06-10T02:50:20;18.50;99.90
17728;DHT22;8984;49.268;12.302;2023-06-10T02:52:47;18.40;99.90
17728;DHT22;8984;49.268;12.302;2023-06-10T02:55:14;18.30;99.90
17728;DHT22;8984;49.268;12.302;2023-06-10T02:57:41;18.20;99.90
17728;DHT22;8984;49.268;12.302;2023-06-10T03:00:08;18.30;99.90
17728;DHT22;8984;49.268;12.302;2023-06-10T03:02:38;18.10;99.90
17728;DHT22;8984;49.268;12.302;2023-06-10T03:05:05;18.10;99.90
17728;DHT22;8984;49.268;12.302;2023-06-10T03:07:37;18.10;99.90
17728;DHT22;8984;49.268;12.302;2023-06-10T03:10:08;18.10;99.90
17728;DHT22;8984;49.268;12.302;2023-06-10T03:12:37;18.10;99.90
17728;DHT22;8984;49.268;12.302;2023-06-10T03:15:38;18.10;99.90
17728;DHT22;8984;49.268;12.302;2023-06-10T03:18:06;18.00;99.90
17728;DHT22;8984;49.268;12.302;2023-06-10T03:20:33;18.10;99.90
17728;DHT22;8984;49.268;12.302;2023-06-10T03:23:02;18.10;99.90
17728;DHT22;8984;49.268;12.302;2023-06-10T03:25:29;18.10;99.90
17728;DHT22;8984;49.268;12.302;2023-06-10T03:27:56;18.10;99.90
17728;DHT22;8984;49.268;12.302;2023-06-10T03:30:22;18.10;99.90
17728;DHT22;8984;49.268;12.302;2023-06-10T03:32:51;18.40;99.90
17728;DHT22;8984;49.268;12.302;2023-06-10T03:35:18;18.10;99.90
17728;DHT22;8984;49.268;12.302;2023-06-10T03:37:44;18.10;99.90
17728;DHT22;8984;49.268;12.302;2023-06-10T03:40:12;18.10;99.90
17728;DHT22;8984;49.268;12.302;2023-06-10T03:42:39;18.10;99.90
17728;DHT22;8984;49.268;12.302;2023-06-10T03:45:07;18.20;99.90
17728;DHT22;8984;49.268;12.302;2023-06-10T03:47:34;18.60;99.90
17728;DHT22;8984;49.268;12.302;2023-06-10T03:50:04;19.10;99.90
17728;DHT22;8984;49.268;12.302;2023-06-10T03:52:32;19.70;99.90
17728;DHT22;8984;49.268;12.302;2023-06-10T03:54:58;20.30;99.90
17728;DHT22;8984;49.268;12.302;2023-06-10T03:57:25;20.70;99.90
17728;DHT22;8984;49.268;12.302;2023-06-10T03:59:52;21.30;99.90
17728;DHT22;8984;49.268;12.302;2023-06-10T04:02:20;21.70;99.90
17728;DHT22;8984;49.268;12.302;2023-06-10T04:04:48;22.20;99.90
17728;DHT22;8984;49.268;12.302;2023-06-10T04:07:17;22.80;99.90
17728;DHT22;8984;49.268;12.302;2023-06-10T04:09:45;23.40;99.90
17728;DHT22;8984;49.268;12.302;2023-06-10T04:12:13;24.00;99.90
17728;DHT22;8984;49.268;12.302;2023-06-10T04:14:40;24.40;99.90
17728;DHT22;8984;49.268;12.302;2023-06-10T04:17:08;24.80;99.90
17728;DHT22;8984;49.268;12.302;2023-06-10T04:19:35;24.90;99.90
17728;DHT22;8984;49.268;12.302;2023-06-10T04:22:02;24.90;99.90
17728;DHT22;8984;49.268;12.302;2023-06-10T04:24:32;25.10;99.90
17728;DHT22;8984;49.268;12.302;2023-06-10T04:26:58;25.30;99.90
17728;DHT22;8984;49.268;12.302;2023-06-10T04:29:25;25.40;99.90
17728;DHT22;8984;49.268;12.302;2023-06-10T04:31:52;25.60;99.90
17728;DHT22;8984;49.268;12.302;2023-06-10T04:34:19;26.00;99.90
17728;DHT22;8984;49.268;12.302;2023-06-10T04:36:46;26.40;99.90
17728;DHT22;8984;49.268;12.302;2023-06-10T04:39:13;26.80;99.50
17728;DHT22;8984;49.268;12.302;2023-06-10T04:41:50;26.80;99.30
17728;DHT22;8984;49.268;12.302;2023-06-10T04:44:28;27.00;98.90
17728;DHT22;8984;49.268;12.302;2023-06-10T04:47:03;27.30;98.70
17728;DHT22;8984;49.268;12.302;2023-06-10T04:49:33;27.60;98.30
17728;DHT22;8984;49.268;12.302;2023-06-10T04:52:04;27.70;97.80
17728;DHT22;8984;49.268;12.302;2023-06-10T04:54:58;27.80;97.70
17728;DHT22;8984;49.268;12.302;2023-06-10T04:57:27;28.10;97.50
17728;DHT22;8984;49.268;12.302;2023-06-10T05:00:18;28.00;97.50
17728;DHT22;8984;49.268;12.302;2023-06-10T05:02:54;28.10;97.40
17728;DHT22;8984;49.268;12.302;2023-06-10T05:05:35;28.10;97.50
17728;DHT22;8984;49.268;12.302;2023-06-10T05:08:08;27.90;97.90
17728;DHT22;8984;49.268;12.302;2023-06-10T05:10:47;27.80;97.80
17728;DHT22;8984;49.268;12.302;2023-06-10T05:13:19;27.90;97.90
17728;DHT22;8984;49.268;12.302;2023-06-10T05:15:49;27.80;98.00
17728;DHT22;8984;49.268;12.302;2023-06-10T05:18:17;27.60;98.00
17728;DHT22;8984;49.268;12.302;2023-06-10T05:20:46;27.80;98.00
17728;DHT22;8984;49.268;12.302;2023-06-10T05:23:17;27.80;98.00
17728;DHT22;8984;49.268;12.302;2023-06-10T05:25:45;27.80;97.70
17728;DHT22;8984;49.268;12.302;2023-06-10T05:28:29;27.70;97.70
17728;DHT22;8984;49.268;12.302;2023-06-10T05:31:01;27.70;98.10
17728;DHT22;8984;49.268;12.302;2023-06-10T05:33:34;27.70;98.20
17728;DHT22;8984;49.268;12.302;2023-06-10T05:36:01;27.70;98.40
17728;DHT22;8984;49.268;12.302;2023-06-10T05:38:32;27.60;98.10
17728;DHT22;8984;49.268;12.302;2023-06-10T05:41:03;27.50;98.70
17728;DHT22;8984;49.268;12.302;2023-06-10T05:43:36;27.50;98.30
17728;DHT22;8984;49.268;12.302;2023-06-10T05:46:04;27.40;98.50
17728;DHT22;8984;49.268;12.302;2023-06-10T05:48:46;27.10;98.30
17728;DHT22;8984;49.268;12.302;2023-06-10T05:51:16;27.10;98.80
17728;DHT22;8984;49.268;12.302;2023-06-10T05:53:45;27.00;98.90
17728;DHT22;8984;49.268;12.302;2023-06-10T05:56:14;27.00;99.00
17728;DHT22;8984;49.268;12.302;2023-06-10T05:58:52;26.70;98.90
17728;DHT22;8984;49.268;12.302;2023-06-10T06:01:21;26.70;99.10
17728;DHT22;8984;49.268;12.302;2023-06-10T06:03:54;26.30;99.30
17728;DHT22;8984;49.268;12.302;2023-06-10T06:06:24;26.30;99.40
17728;DHT22;8984;49.268;12.302;2023-06-10T06:08:54;26.00;99.90
17728;DHT22;8984;49.268;12.302;2023-06-10T06:11:24;26.10;99.80
17728;DHT22;8984;49.268;12.302;2023-06-10T06:13:54;25.90;99.90
17728;DHT22;8984;49.268;12.302;2023-06-10T06:16:27;25.70;99.90
17728;DHT22;8984;49.268;12.302;2023-06-10T06:19:11;25.70;99.90
17728;DHT22;8984;49.268;12.302;2023-06-10T06:22:06;25.60;99.90
17728;DHT22;8984;49.268;12.302;2023-06-10T06:24:52;25.40;99.90
17728;DHT22;8984;49.268;12.302;2023-06-10T06:27:34;25.50;99.90
17728;DHT22;8984;49.268;12.302;2023-06-10T06:30:31;25.40;99.90
17728;DHT22;8984;49.268;12.302;2023-06-10T06:32:59;25.40;99.90
17728;DHT22;8984;49.268;12.302;2023-06-10T06:35:33;25.50;99.90
17728;DHT22;8984;49.268;12.302;2023-06-10T06:38:02;25.70;99.90
17728;DHT22;8984;49.268;12.302;2023-06-10T06:40:48;25.60;99.90
17728;DHT22;8984;49.268;12.302;2023-06-10T06:43:23;25.30;99.90
17728;DHT22;8984;49.268;12.302;2023-06-10T06:45:55;25.10;99.90
17728;DHT22;8984;49.268;12.302;2023-06-10T06:48:27;25.00;99.90
17728;DHT22;8984;49.268;12.302;2023-06-10T06:50:55;25.10;99.90
17728;DHT22;8984;49.268;12.302;2023-06-10T06:53:25;24.50;99.90
17728;DHT22;8984;49.268;12.302;2023-06-10T06:55:53;23.70;99.90
17728;DHT22;8984;49.268;12.302;2023-06-10T06:58:34;23.70;99.90
17728;DHT22;8984;49.268;12.302;2023-06-10T07:01:07;24.10;99.90
17728;DHT22;8984;49.268;12.302;2023-06-10T07:03:35;24.00;99.90
17728;DHT22;8984;49.268;12.302;2023-06-10T07:06:10;24.00;99.90
17728;DHT22;8984;49.268;12.302;2023-06-10T07:08:40;24.20;99.90
17728;DHT22;8984;49.268;12.302;2023-06-10T07:11:12;24.40;99.90
17728;DHT22;8984;49.268;12.302;2023-06-10T07:14:04;24.80;99.90
17728;DHT22;8984;49.268;12.302;2023-06-10T07:16:38;24.50;99.90
17728;DHT22;8984;49.268;12.302;2023-06-10T07:19:12;24.70;99.90
17728;DHT22;8984;49.268;12.302;2023-06-10T07:21:43;24.50;99.90
17728;DHT22;8984;49.268;12.302;2023-06-10T07:24:10;24.80;99.90
17728;DHT22;8984;49.268;12.302;2023-06-10T07:26:50;24.10;99.90
17728;DHT22;8984;49.268;12.302;2023-06-10T07:29:23;24.50;99.90
17728;DHT22;8984;49.268;12.302;2023-06-10T07:32:07;24.40;99.90
17728;DHT22;8984;49.268;12.302;2023-06-10T07:34:39;24.50;99.90
17728;DHT22;8984;49.268;12.302;2023-06-10T07:37:06;24.50;99.90
17728;DHT22;8984;49.268;12.302;2023-06-10T07:39:34;24.20;99.90
17728;DHT22;8984;49.268;12.302;2023-06-10T07:42:07;24.10;99.90
17728;DHT22;8984;49.268;12.302;2023-06-10T07:44:36;24.20;99.90
17728;DHT22;8984;49.268;12.302;2023-06-10T07:47:18;24.20;99.90
17728;DHT22;8984;49.268;12.302;2023-06-10T07:49:49;24.50;99.90
17728;DHT22;8984;49.268;12.302;2023-06-10T07:52:21;24.40;99.90
17728;DHT22;8984;49.268;12.302;2023-06-10T07:54:51;24.30;99.90
17728;DHT22;8984;49.268;12.302;2023-06-10T07:57:20;24.00;99.90
17728;DHT22;8984;49.268;12.302;2023-06-10T07:59:48;24.00;99.90
17728;DHT22;8984;49.268;12.302;2023-06-10T08:05:32;24.50;99.90
17728;DHT22;8984;49.268;12.302;2023-06-10T08:08:05;24.70;99.90
17728;DHT22;8984;49.268;12.302;2023-06-10T08:10:33;25.00;99.90
17728;DHT22;8984;49.268;12.302;2023-06-10T08:13:15;24.70;99.90
17728;DHT22;8984;49.268;12.302;2023-06-10T08:15:48;24.40;99.90
17728;DHT22;8984;49.268;12.302;2023-06-10T08:18:26;24.50;99.90
17728;DHT22;8984;49.268;12.302;2023-06-10T08:20:58;24.70;99.90
17728;DHT22;8984;49.268;12.302;2023-06-10T08:23:34;24.50;99.90
17728;DHT22;8984;49.268;12.302;2023-06-10T08:26:17;25.10;99.90
17728;DHT22;8984;49.268;12.302;2023-06-10T08:28:51;25.30;99.90
17728;DHT22;8984;49.268;12.302;2023-06-10T08:31:22;25.20;99.90
17728;DHT22;8984;49.268;12.302;2023-06-10T08:33:53;25.10;99.90
17728;DHT22;8984;49.268;12.302;2023-06-10T08:36:28;24.80;99.90
17728;DHT22;8984;49.268;12.302;2023-06-10T08:38:57;24.60;99.90
17728;DHT22;8984;49.268;12.302;2023-06-10T08:41:28;24.80;99.90
17728;DHT22;8984;49.268;12.302;2023-06-10T08:44:10;25.00;99.90
17728;DHT22;8984;49.268;12.302;2023-06-10T08:46:47;24.90;99.90
17728;DHT22;8984;49.268;12.302;2023-06-10T08:49:18;24.90;99.90
17728;DHT22;8984;49.268;12.302;2023-06-10T08:51:54;25.00;99.90
17728;DHT22;8984;49.268;12.302;2023-06-10T08:54:28;25.00;99.90
17728;DHT22;8984;49.268;12.302;2023-06-10T08:57:00;24.90;99.90
17728;DHT22;8984;49.268;12.302;2023-06-10T08:59:30;24.90;99.90
17728;DHT22;8984;49.268;12.302;2023-06-10T09:02:01;25.10;99.90
17728;DHT22;8984;49.268;12.302;2023-06-10T09:04:30;25.40;99.90
17728;DHT22;8984;49.268;12.302;2023-06-10T09:07:14;25.40;99.80
17728;DHT22;8984;49.268;12.302;2023-06-10T09:09:43;24.80;99.90
17728;DHT22;8984;49.268;12.302;2023-06-10T09:12:12;24.60;99.90
17728;DHT22;8984;49.268;12.302;2023-06-10T09:14:41;24.80;99.90
17728;DHT22;8984;49.268;12.302;2023-06-10T09:17:21;24.90;99.90
17728;DHT22;8984;49.268;12.302;2023-06-10T09:19:54;24.40;99.90
17728;DHT22;8984;49.268;12.302;2023-06-10T09:22:28;24.10;99.90
17728;DHT22;8984;49.268;12.302;2023-06-10T09:25:03;24.60;99.90
17728;DHT22;8984;49.268;12.302;2023-06-10T09:27:43;24.90;99.90
17728;DHT22;8984;49.268;12.302;2023-06-10T09:30:24;25.00;99.90
17728;DHT22;8984;49.268;12.302;2023-06-10T09:32:54;25.30;99.90
17728;DHT22;8984;49.268;12.302;2023-06-10T09:35:29;25.10;99.90
17728;DHT22;8984;49.268;12.302;2023-06-10T09:38:19;25.10;99.90
17728;DHT22;8984;49.268;12.302;2023-06-10T09:40:59;24.90;99.90
17728;DHT22;8984;49.268;12.302;2023-06-10T09:43:41;25.10;99.90
17728;DHT22;8984;49.268;12.302;2023-06-10T09:46:15;25.30;99.90
17728;DHT22;8984;49.268;12.302;2023-06-10T09:48:46;25.50;99.70
17728;DHT22;8984;49.268;12.302;2023-06-10T09:51:19;25.70;99.90
17728;DHT22;8984;49.268;12.302;2023-06-10T09:54:31;25.80;99.90
17728;DHT22;8984;49.268;12.302;2023-06-10T09:56:58;25.80;99.80
17728;DHT22;8984;49.268;12.302;2023-06-10T09:59:29;26.00;99.30
17728;DHT22;8984;49.268;12.302;2023-06-10T10:01:57;26.10;98.50
17728;DHT22;8984;49.268;12.302;2023-06-10T10:04:26;26.60;98.50
17728;DHT22;8984;49.268;12.302;2023-06-10T10:06:54;26.40;97.60
17728;DHT22;8984;49.268;12.302;2023-06-10T10:09:20;26.30;97.90
17728;DHT22;8984;49.268;12.302;2023-06-10T10:11:49;26.00;98.40
17728;DHT22;8984;49.268;12.302;2023-06-10T10:14:18;26.30;98.10
17728;DHT22;8984;49.268;12.302;2023-06-10T10:16:46;26.40;98.30
17728;DHT22;8984;49.268;12.302;2023-06-10T10:19:32;26.20;97.60
17728;DHT22;8984;49.268;12.302;2023-06-10T10:22:35;26.40;97.80
17728;DHT22;8984;49.268;12.302;2023-06-10T10:25:23;26.50;97.30
17728;DHT22;8984;49.268;12.302;2023-06-10T10:27:58;26.40;96.80
17728;DHT22;8984;49.268;12.302;2023-06-10T10:30:28;26.40;97.10
17728;DHT22;8984;49.268;12.302;2023-06-10T10:33:18;26.30;97.10
17728;DHT22;8984;49.268;12.302;2023-06-10T10:35:47;26.20;96.40
17728;DHT22;8984;49.268;12.302;2023-06-10T10:38:46;26.50;96.70
17728;DHT22;8984;49.268;12.302;2023-06-10T10:41:31;26.60;96.40
17728;DHT22;8984;49.268;12.302;2023-06-10T10:44:05;26.50;97.90
17728;DHT22;8984;49.268;12.302;2023-06-10T10:46:50;26.60;97.80
17728;DHT22;8984;49.268;12.302;2023-06-10T10:49:37;26.30;98.50
17728;DHT22;8984;49.268;12.302;2023-06-10T10:52:16;26.00;99.10
17728;DHT22;8984;49.268;12.302;2023-06-10T10:55:12;26.30;99.20
17728;DHT22;8984;49.268;12.302;2023-06-10T10:58:09;26.30;98.80
17728;DHT22;8984;49.268;12.302;2023-06-10T11:00:42;26.40;98.70
17728;DHT22;8984;49.268;12.302;2023-06-10T11:03:15;26.50;98.30
17728;DHT22;8984;49.268;12.302;2023-06-10T11:05:44;26.50;97.90
17728;DHT22;8984;49.268;12.302;2023-06-10T11:08:14;26.20;98.00
17728;DHT22;8984;49.268;12.302;2023-06-10T11:10:50;26.00;98.40
17728;DHT22;8984;49.268;12.302;2023-06-10T11:13:20;26.10;98.80
17728;DHT22;8984;49.268;12.302;2023-06-10T11:15:47;25.80;98.80
17728;DHT22;8984;49.268;12.302;2023-06-10T11:18:20;26.00;99.20
17728;DHT22;8984;49.268;12.302;2023-06-10T11:20:58;26.00;98.80
17728;DHT22;8984;49.268;12.302;2023-06-10T11:23:32;26.30;98.50
17728;DHT22;8984;49.268;12.302;2023-06-10T11:26:10;26.10;98.70
17728;DHT22;8984;49.268;12.302;2023-06-10T11:28:39;26.10;98.60
17728;DHT22;8984;49.268;12.302;2023-06-10T11:31:06;26.20;98.70
17728;DHT22;8984;49.268;12.302;2023-06-10T11:33:38;26.00;98.90
17728;DHT22;8984;49.268;12.302;2023-06-10T11:36:07;26.00;98.70
17728;DHT22;8984;49.268;12.302;2023-06-10T11:38:33;26.10;98.40
17728;DHT22;8984;49.268;12.302;2023-06-10T11:41:02;26.20;98.50
17728;DHT22;8984;49.268;12.302;2023-06-10T11:43:30;26.50;97.60
17728;DHT22;8984;49.268;12.302;2023-06-10T11:45:58;26.10;97.50
17728;DHT22;8984;49.268;12.302;2023-06-10T11:48:25;26.30;98.10
17728;DHT22;8984;49.268;12.302;2023-06-10T11:50:54;26.30;98.20
17728;DHT22;8984;49.268;12.302;2023-06-10T11:53:23;26.20;98.40
17728;DHT22;8984;49.268;12.302;2023-06-10T11:55:50;26.20;98.50
17728;DHT22;8984;49.268;12.302;2023-06-10T11:58:19;26.50;98.50
17728;DHT22;8984;49.268;12.302;2023-06-10T12:00:47;26.90;97.20
17728;DHT22;8984;49.268;12.302;2023-06-10T12:03:16;26.50;97.50
17728;DHT22;8984;49.268;12.302;2023-06-10T12:05:58;26.30;97.80
17728;DHT22;8984;49.268;12.302;2023-06-10T12:08:25;26.40;98.20
17728;DHT22;8984;49.268;12.302;2023-06-10T12:10:53;26.60;98.50
17728;DHT22;8984;49.268;12.302;2023-06-10T12:13:20;26.60;97.80
17728;DHT22;8984;49.268;12.302;2023-06-10T12:15:47;26.50;98.10
17728;DHT22;8984;49.268;12.302;2023-06-10T12:18:19;26.20;97.30
17728;DHT22;8984;49.268;12.302;2023-06-10T12:20:46;26.10;96.80
17728;DHT22;8984;49.268;12.302;2023-06-10T12:23:14;26.00;97.10
17728;DHT22;8984;49.268;12.302;2023-06-10T12:25:49;26.00;97.60
17728;DHT22;8984;49.268;12.302;2023-06-10T12:28:18;26.20;97.70
17728;DHT22;8984;49.268;12.302;2023-06-10T12:30:46;26.60;96.80
17728;DHT22;8984;49.268;12.302;2023-06-10T12:33:18;27.00;96.40
17728;DHT22;8984;49.268;12.302;2023-06-10T12:35:48;27.10;96.30
17728;DHT22;8984;49.268;12.302;2023-06-10T12:38:21;27.10;96.60
17728;DHT22;8984;49.268;12.302;2023-06-10T12:40:48;27.00;97.10
17728;DHT22;8984;49.268;12.302;2023-06-10T12:43:19;26.70;97.80
17728;DHT22;8984;49.268;12.302;2023-06-10T12:45:46;26.80;97.70
17728;DHT22;8984;49.268;12.302;2023-06-10T12:48:19;26.30;97.70
17728;DHT22;8984;49.268;12.302;2023-06-10T12:50:51;26.00;98.10
17728;DHT22;8984;49.268;12.302;2023-06-10T12:53:19;25.90;98.40
17728;DHT22;8984;49.268;12.302;2023-06-10T12:55:46;25.90;98.30
17728;DHT22;8984;49.268;12.302;2023-06-10T12:58:13;25.80;97.80
17728;DHT22;8984;49.268;12.302;2023-06-10T13:00:40;25.30;98.20
17728;DHT22;8984;49.268;12.302;2023-06-10T13:03:08;25.60;98.00
17728;DHT22;8984;49.268;12.302;2023-06-10T13:05:37;25.60;97.90
17728;DHT22;8984;49.268;12.302;2023-06-10T13:08:05;25.70;98.20
17728;DHT22;8984;49.268;12.302;2023-06-10T13:10:32;26.20;96.80
17728;DHT22;8984;49.268;12.302;2023-06-10T13:13:00;26.30;97.20
17728;DHT22;8984;49.268;12.302;2023-06-10T13:15:27;26.60;97.20
17728;DHT22;8984;49.268;12.302;2023-06-10T13:17:53;26.90;96.90
17728;DHT22;8984;49.268;12.302;2023-06-10T13:20:20;27.00;96.70
17728;DHT22;8984;49.268;12.302;2023-06-10T13:22:48;27.20;96.80
17728;DHT22;8984;49.268;12.302;2023-06-10T13:25:15;26.90;97.10
17728;DHT22;8984;49.268;12.302;2023-06-10T13:27:42;27.20;96.90
17728;DHT22;8984;49.268;12.302;2023-06-10T13:30:10;27.10;96.60
17728;DHT22;8984;49.268;12.302;2023-06-10T13:32:37;27.10;96.20
17728;DHT22;8984;49.268;12.302;2023-06-10T13:35:05;27.40;96.70
17728;DHT22;8984;49.268;12.302;2023-06-10T13:37:32;27.00;96.70
17728;DHT22;8984;49.268;12.302;2023-06-10T13:40:01;27.50;97.00
17728;DHT22;8984;49.268;12.302;2023-06-10T13:42:28;27.80;96.60
17728;DHT22;8984;49.268;12.302;2023-06-10T13:44:55;27.80;96.40
17728;DHT22;8984;49.268;12.302;2023-06-10T13:47:23;28.00;96.60
17728;DHT22;8984;49.268;12.302;2023-06-10T13:49:50;27.70;96.50
17728;DHT22;8984;49.268;12.302;2023-06-10T13:52:16;27.40;97.30
17728;DHT22;8984;49.268;12.302;2023-06-10T13:54:43;26.80;97.70
17728;DHT22;8984;49.268;12.302;2023-06-10T13:57:11;26.70;98.00
17728;DHT22;8984;49.268;12.302;2023-06-10T13:59:38;26.60;98.20
17728;DHT22;8984;49.268;12.302;2023-06-10T14:02:05;26.90;98.20
17728;DHT22;8984;49.268;12.302;2023-06-10T14:04:32;26.20;97.70
17728;DHT22;8984;49.268;12.302;2023-06-10T14:06:59;26.20;98.10
17728;DHT22;8984;49.268;12.302;2023-06-10T14:09:26;26.20;97.80
17728;DHT22;8984;49.268;12.302;2023-06-10T14:11:53;26.50;98.00
17728;DHT22;8984;49.268;12.302;2023-06-10T14:14:21;26.30;97.80
17728;DHT22;8984;49.268;12.302;2023-06-10T14:16:47;26.10;97.80
17728;DHT22;8984;49.268;12.302;2023-06-10T14:19:14;26.20;97.90
17728;DHT22;8984;49.268;12.302;2023-06-10T14:21:41;26.20;97.90
17728;DHT22;8984;49.268;12.302;2023-06-10T14:24:08;26.20;97.90
17728;DHT22;8984;49.268;12.302;2023-06-10T14:26:34;26.20;98.00
17728;DHT22;8984;49.268;12.302;2023-06-10T14:29:01;26.00;98.30
17728;DHT22;8984;49.268;12.302;2023-06-10T14:31:30;26.10;98.50
17728;DHT22;8984;49.268;12.302;2023-06-10T14:33:57;26.20;98.40
17728;DHT22;8984;49.268;12.302;2023-06-10T14:36:24;26.30;98.20
17728;DHT22;8984;49.268;12.302;2023-06-10T14:38:50;26.10;98.20
17728;DHT22;8984;49.268;12.302;2023-06-10T14:41:17;26.10;98.40
17728;DHT22;8984;49.268;12.302;2023-06-10T14:43:44;26.40;98.20
17728;DHT22;8984;49.268;12.302;2023-06-10T14:46:10;26.00;98.10
17728;DHT22;8984;49.268;12.302;2023-06-10T14:48:39;26.20;98.20
17728;DHT22;8984;49.268;12.302;2023-06-10T14:51:05;26.50;98.00
17728;DHT22;8984;49.268;12.302;2023-06-10T14:53:32;26.60;97.90
17728;DHT22;8984;49.268;12.302;2023-06-10T14:55:59;26.30;97.80
17728;DHT22;8984;49.268;12.302;2023-06-10T14:58:28;26.20;98.20
17728;DHT22;8984;49.268;12.302;2023-06-10T15:00:55;26.50;98.10
17728;DHT22;8984;49.268;12.302;2023-06-10T15:03:22;26.60;98.00
17728;DHT22;8984;49.268;12.302;2023-06-10T15:05:50;26.50;98.10
17728;DHT22;8984;49.268;12.302;2023-06-10T15:08:16;26.30;97.90
17728;DHT22;8984;49.268;12.302;2023-06-10T15:10:44;26.20;97.50
17728;DHT22;8984;49.268;12.302;2023-06-10T15:13:11;26.00;98.00
17728;DHT22;8984;49.268;12.302;2023-06-10T15:15:38;26.10;97.50
17728;DHT22;8984;49.268;12.302;2023-06-10T15:18:04;26.20;97.40
17728;DHT22;8984;49.268;12.302;2023-06-10T15:20:31;26.00;97.50
17728;DHT22;8984;49.268;12.302;2023-06-10T15:23:03;26.10;97.70
17728;DHT22;8984;49.268;12.302;2023-06-10T15:25:33;26.20;97.90
17728;DHT22;8984;49.268;12.302;2023-06-10T15:28:00;26.30;97.40
17728;DHT22;8984;49.268;12.302;2023-06-10T15:30:27;26.10;97.40
17728;DHT22;8984;49.268;12.302;2023-06-10T15:32:53;26.00;97.30
17728;DHT22;8984;49.268;12.302;2023-06-10T15:35:21;26.10;97.30
17728;DHT22;8984;49.268;12.302;2023-06-10T15:37:48;26.00;97.20
17728;DHT22;8984;49.268;12.302;2023-06-10T15:40:16;26.00;97.40
17728;DHT22;8984;49.268;12.302;2023-06-10T15:42:42;25.90;97.50
17728;DHT22;8984;49.268;12.302;2023-06-10T15:45:10;25.80;97.60
17728;DHT22;8984;49.268;12.302;2023-06-10T15:47:37;26.00;97.80
17728;DHT22;8984;49.268;12.302;2023-06-10T15:50:06;26.10;97.50
17728;DHT22;8984;49.268;12.302;2023-06-10T15:52:33;25.90;97.80
17728;DHT22;8984;49.268;12.302;2023-06-10T15:55:00;25.90;98.00
17728;DHT22;8984;49.268;12.302;2023-06-10T15:57:28;26.20;97.90